2VA6 weather

Arrowhead Point Airport
Saluda, Virginia, United States

Public forecast

Using degrees Fahrenheit for public forecast. Weather courtesy of forecast.io.

METAR (pilot weather report)

Closest report is Middle Peninsula Regional Airport, 9.9 nm (18.4 km) SW. Retrieved 2019/06/20 04:35 UTC (17 minutes ago):

KFYJ 200435Z AUTO 00000KT 10SM SCT043 24/24 A2973 RMK AO1 T02380236

TAF (pilot weather forecast)

Forecast is more than 6 hours old.

Closest forecast is Felker Army Air Field, 29.5 nm (54.6 km) S. Retrieved 2019/06/19 18:09 UTC (11 hours ago):

TAF KFAF 191800Z 1918/2024 21009KT 9999 SCT018 BKN100 QNH2971INS BECMG 1918/1919 21010G15KT 8000 -SHRA BKN020 BKN100 QNH2970INS TEMPO 1920/2001 4800 -TSRA BKN015CB BECMG 2001/2002 VRB06KT 9999 NSW BKN020 QNH2963INS BECMG 2013/2014 23012G18KT 9999 BKN030 QNH2956INS BECMG 2021/2022 23015G22KT 8000 -SHRA BKN020 QNH2955INS TX33/2018Z TN22/2010Z LAST NO AMDS AFT 2003 NEXT 2010